createdAt,value
2019-05-29T00:01:00.455Z,10.14
2019-05-29T00:03:30.949Z,10.23
2019-05-29T00:06:01.143Z,10.06
2019-05-29T00:08:31.306Z,10.02
2019-05-29T00:11:01.493Z,10.01
2019-05-29T00:13:31.634Z,9.95
2019-05-29T00:16:01.779Z,9.95
2019-05-29T00:18:31.923Z,9.81
2019-05-29T00:21:02.062Z,9.76
2019-05-29T00:23:32.184Z,9.82
2019-05-29T00:26:02.310Z,9.74
2019-05-29T00:28:32.431Z,9.60
2019-05-29T00:31:02.554Z,9.63
2019-05-29T00:33:32.751Z,9.57
2019-05-29T00:36:02.874Z,9.68
2019-05-29T00:38:33.082Z,9.73
2019-05-29T00:41:04.102Z,9.67
2019-05-29T00:43:34.306Z,9.65
2019-05-29T00:46:04.428Z,9.60
2019-05-29T00:48:34.562Z,9.42
2019-05-29T00:51:05.795Z,9.43
2019-05-29T00:53:35.964Z,9.40
2019-05-29T00:56:06.045Z,9.36
2019-05-29T00:58:36.170Z,9.28
2019-05-29T01:01:06.332Z,9.29
2019-05-29T01:03:36.462Z,9.26
2019-05-29T01:06:06.656Z,9.30
2019-05-29T01:08:37.852Z,9.27
2019-05-29T01:11:07.999Z,9.23
2019-05-29T01:13:39.140Z,9.17
2019-05-29T01:16:09.263Z,9.20
2019-05-29T01:18:39.399Z,9.20
2019-05-29T01:21:09.506Z,9.03
2019-05-29T01:23:39.674Z,9.09
2019-05-29T01:26:09.798Z,9.03
2019-05-29T01:28:39.969Z,8.98
2019-05-29T01:31:10.100Z,8.96
2019-05-29T01:33:40.258Z,8.93
2019-05-29T01:36:10.389Z,8.96
2019-05-29T01:38:40.530Z,8.94
2019-05-29T01:41:10.667Z,8.95
2019-05-29T01:43:40.792Z,8.93
2019-05-29T01:46:10.917Z,8.91
2019-05-29T01:48:41.044Z,8.93
2019-05-29T01:51:11.503Z,8.84
2019-05-29T01:53:41.600Z,8.82
2019-05-29T01:56:11.752Z,8.82
2019-05-29T01:58:42.044Z,8.75
2019-05-29T02:01:12.183Z,8.70
2019-05-29T02:03:42.312Z,8.63
2019-05-29T02:06:12.447Z,8.56
2019-05-29T02:08:42.565Z,8.59
2019-05-29T02:11:12.770Z,8.62
2019-05-29T02:13:42.911Z,8.59
2019-05-29T02:16:13.043Z,8.64
2019-05-29T02:18:43.181Z,8.68
2019-05-29T02:21:13.351Z,8.69
2019-05-29T02:23:43.475Z,8.59
2019-05-29T02:26:13.667Z,8.65
2019-05-29T02:28:43.791Z,8.61
2019-05-29T02:31:13.922Z,8.61
2019-05-29T02:33:44.057Z,8.68
2019-05-29T02:36:14.166Z,8.83
2019-05-29T02:38:44.296Z,9.19
2019-05-29T02:41:14.427Z,9.48
2019-05-29T02:43:44.602Z,10.12
2019-05-29T02:46:14.723Z,10.84
2019-05-29T02:48:44.861Z,11.46
2019-05-29T02:51:15.044Z,12.07
2019-05-29T02:53:45.228Z,12.57
2019-05-29T02:56:15.337Z,12.99
2019-05-29T02:58:45.832Z,13.40
2019-05-29T03:01:15.953Z,13.63
2019-05-29T03:03:46.124Z,13.93
2019-05-29T03:06:16.259Z,13.52
2019-05-29T03:08:46.397Z,14.06
2019-05-29T03:11:16.583Z,14.03
2019-05-29T03:13:46.903Z,14.11
2019-05-29T03:16:17.039Z,13.73
2019-05-29T03:18:47.177Z,13.33
2019-05-29T03:21:17.333Z,13.40
2019-05-29T03:23:47.577Z,13.13
2019-05-29T03:26:17.719Z,12.85
2019-05-29T03:28:47.881Z,12.68
2019-05-29T03:31:18.028Z,12.44
2019-05-29T03:33:50.234Z,12.40
2019-05-29T03:36:20.093Z,12.37
2019-05-29T03:38:50.273Z,12.30
2019-05-29T03:41:20.438Z,12.26
2019-05-29T03:43:50.578Z,12.13
2019-05-29T03:46:31.738Z,12.04
2019-05-29T03:48:52.727Z,12.04
2019-05-29T03:51:22.868Z,11.93
2019-05-29T03:53:52.998Z,11.79
2019-05-29T03:56:23.174Z,11.67
2019-05-29T03:58:54.403Z,11.64
2019-05-29T04:01:24.540Z,11.43
2019-05-29T04:03:54.693Z,11.31
2019-05-29T04:06:24.824Z,11.41
2019-05-29T04:08:54.965Z,11.35
2019-05-29T04:11:25.085Z,11.37
2019-05-29T04:13:55.349Z,11.52
2019-05-29T04:16:27.554Z,11.46
2019-05-29T04:18:59.269Z,11.47
2019-05-29T04:21:32.089Z,11.61
2019-05-29T04:24:06.752Z,11.57
2019-05-29T04:26:40.903Z,11.56
2019-05-29T04:29:11.627Z,11.61
2019-05-29T04:31:41.789Z,11.68
2019-05-29T04:34:11.945Z,11.65
2019-05-29T04:36:43.890Z,11.58
2019-05-29T04:39:14.244Z,11.60
2019-05-29T04:41:44.395Z,11.55
2019-05-29T04:44:14.559Z,11.66
2019-05-29T04:46:44.667Z,11.85
2019-05-29T04:49:14.789Z,12.03
2019-05-29T04:51:44.922Z,12.15
2019-05-29T04:54:15.158Z,12.52
2019-05-29T04:56:45.307Z,12.64
2019-05-29T04:59:15.454Z,12.84
2019-05-29T05:01:45.583Z,13.04
2019-05-29T05:04:15.712Z,13.05
2019-05-29T05:06:45.876Z,13.10
2019-05-29T05:09:16.020Z,13.19
2019-05-29T05:11:46.149Z,13.68
2019-05-29T05:14:17.128Z,13.74
2019-05-29T05:16:48.771Z,14.27
2019-05-29T05:19:18.919Z,14.51
2019-05-29T05:21:49.064Z,14.55
2019-05-29T05:24:19.367Z,14.62
2019-05-29T05:26:49.507Z,15.03
2019-05-29T05:29:19.672Z,14.99
2019-05-29T05:31:49.869Z,15.07
2019-05-29T05:34:19.993Z,15.19
2019-05-29T05:36:51.953Z,15.68
2019-05-29T05:39:22.361Z,15.73
2019-05-29T05:41:52.894Z,16.11
2019-05-29T05:44:23.403Z,16.43
2019-05-29T05:46:53.547Z,16.74
2019-05-29T05:49:23.692Z,16.79
2019-05-29T05:51:53.936Z,17.04
2019-05-29T05:54:24.118Z,17.06
2019-05-29T05:56:54.256Z,17.19
2019-05-29T05:59:25.030Z,17.06
2019-05-29T06:01:55.156Z,17.05
2019-05-29T06:04:25.310Z,17.36
2019-05-29T06:06:55.437Z,17.36
2019-05-29T06:09:26.431Z,17.77
2019-05-29T06:11:56.591Z,17.76
2019-05-29T06:14:26.742Z,17.94
2019-05-29T06:16:56.869Z,18.20
2019-05-29T06:19:27.081Z,17.92
2019-05-29T06:21:58.132Z,18.15
2019-05-29T06:24:28.389Z,18.08
2019-05-29T06:26:58.506Z,18.67
2019-05-29T06:29:28.726Z,18.68
2019-05-29T06:31:59.936Z,18.86
2019-05-29T06:34:30.097Z,18.89
2019-05-29T06:37:00.239Z,18.76
2019-05-29T06:39:30.384Z,18.92
2019-05-29T06:42:00.519Z,18.85
2019-05-29T06:44:30.692Z,18.68
2019-05-29T06:47:00.809Z,18.60
2019-05-29T06:49:30.966Z,18.81
2019-05-29T06:52:01.101Z,18.64
2019-05-29T06:54:31.243Z,18.54
2019-05-29T06:57:01.373Z,18.81
2019-05-29T06:59:31.521Z,18.53
2019-05-29T07:02:01.660Z,18.55
2019-05-29T07:04:31.805Z,18.74
2019-05-29T07:07:01.954Z,18.58
2019-05-29T07:09:32.107Z,18.49
2019-05-29T07:12:02.229Z,18.54
2019-05-29T07:14:32.836Z,18.44
2019-05-29T07:17:02.972Z,18.39
2019-05-29T07:19:47.619Z,18.68
2019-05-29T07:22:04.977Z,18.66
2019-05-29T07:24:36.827Z,18.33
2019-05-29T07:27:07.214Z,18.51
2019-05-29T07:29:37.348Z,18.60
2019-05-29T07:32:07.516Z,18.69
2019-05-29T07:34:51.223Z,18.84
2019-05-29T07:37:10.608Z,18.79
2019-05-29T07:39:41.469Z,19.03
2019-05-29T07:42:11.719Z,19.24
2019-05-29T07:44:42.196Z,19.26
2019-05-29T07:47:12.424Z,19.26
2019-05-29T07:49:44.872Z,19.20
2019-05-29T07:52:14.384Z,19.39
2019-05-29T07:54:45.698Z,19.82
2019-05-29T07:57:16.039Z,19.57
2019-05-29T07:59:46.752Z,19.40
2019-05-29T08:02:16.900Z,19.54
2019-05-29T08:04:47.252Z,19.10
2019-05-29T08:07:17.461Z,19.11
2019-05-29T08:09:47.893Z,19.55
2019-05-29T08:12:18.140Z,19.50
2019-05-29T08:14:48.275Z,19.49
2019-05-29T08:17:18.435Z,19.33
2019-05-29T08:20:02.959Z,19.73
2019-05-29T08:22:33.881Z,19.74
2019-05-29T08:24:52.227Z,20.04
2019-05-29T08:27:22.374Z,20.22
2019-05-29T08:29:52.566Z,20.14
2019-05-29T08:32:22.722Z,20.48
2019-05-29T08:34:52.919Z,20.38
2019-05-29T08:37:23.065Z,20.71
2019-05-29T08:39:53.217Z,20.71
2019-05-29T08:42:23.977Z,20.97
2019-05-29T08:44:54.336Z,20.76
2019-05-29T08:47:24.719Z,20.57
2019-05-29T08:49:54.869Z,20.73
2019-05-29T08:52:26.164Z,20.50
2019-05-29T08:54:56.343Z,20.55
2019-05-29T08:57:26.524Z,20.41
2019-05-29T08:59:56.675Z,20.60
2019-05-29T09:02:26.806Z,20.74
2019-05-29T09:04:56.957Z,20.77
2019-05-29T09:07:28.149Z,21.12
2019-05-29T09:09:58.325Z,21.24
2019-05-29T09:12:29.907Z,20.96
2019-05-29T09:15:01.440Z,21.36
2019-05-29T09:17:34.438Z,21.59
2019-05-29T09:20:03.559Z,21.76
2019-05-29T09:22:33.873Z,21.51
2019-05-29T09:25:04.333Z,22.01
2019-05-29T09:27:34.456Z,21.94
2019-05-29T09:30:06.438Z,21.87
2019-05-29T09:32:49.465Z,22.03
2019-05-29T09:35:08.706Z,21.59
2019-05-29T09:37:38.874Z,21.61
2019-05-29T09:40:17.028Z,21.39
2019-05-29T09:42:47.240Z,21.86
2019-05-29T09:45:17.959Z,22.15
2019-05-29T09:47:48.418Z,22.16
2019-05-29T09:50:20.848Z,21.88
2019-05-29T09:52:50.789Z,21.57
2019-05-29T09:55:21.028Z,21.75
2019-05-29T09:57:53.531Z,21.85
2019-05-29T10:00:24.209Z,21.53
2019-05-29T10:02:55.547Z,22.03
2019-05-29T10:05:25.859Z,22.14
2019-05-29T10:07:56.770Z,22.70
2019-05-29T10:10:27.842Z,22.77
2019-05-29T10:12:58.181Z,23.03
2019-05-29T10:15:28.411Z,22.78
2019-05-29T10:18:00.643Z,23.19
2019-05-29T10:20:31.012Z,23.06
2019-05-29T10:23:01.150Z,22.75
2019-05-29T10:25:31.287Z,23.12
2019-05-29T10:28:03.791Z,22.62
2019-05-29T10:30:33.334Z,22.60
2019-05-29T10:33:03.456Z,22.55
2019-05-29T10:35:33.590Z,23.07
2019-05-29T10:38:03.716Z,23.07
2019-05-29T10:40:33.844Z,22.90
2019-05-29T10:43:04.252Z,22.93
2019-05-29T10:45:34.426Z,22.52
2019-05-29T10:48:04.795Z,21.76
2019-05-29T10:50:34.962Z,21.68
2019-05-29T10:53:05.207Z,21.34
2019-05-29T10:55:35.413Z,21.42
2019-05-29T10:58:05.580Z,21.87
2019-05-29T11:00:38.746Z,22.37
2019-05-29T11:03:07.559Z,22.68
2019-05-29T11:05:37.700Z,22.89
2019-05-29T11:08:07.832Z,22.68
2019-05-29T11:10:37.988Z,22.50
2019-05-29T11:13:08.116Z,22.88
2019-05-29T11:15:38.276Z,23.20
2019-05-29T11:18:08.427Z,23.38
2019-05-29T11:20:38.561Z,23.33
2019-05-29T11:23:08.692Z,23.21
2019-05-29T11:25:38.826Z,23.10
2019-05-29T11:28:09.389Z,22.43
2019-05-29T11:30:39.568Z,22.26
2019-05-29T11:33:09.687Z,22.22
2019-05-29T11:35:56.819Z,21.98
2019-05-29T11:38:11.755Z,22.11
2019-05-29T11:40:42.067Z,22.17
2019-05-29T11:43:12.681Z,21.95
2019-05-29T11:45:42.832Z,22.06
2019-05-29T11:48:13.121Z,22.29
2019-05-29T11:50:43.572Z,22.10
2019-05-29T11:53:13.801Z,21.59
2019-05-29T11:55:43.930Z,21.97
2019-05-29T11:58:30.019Z,21.89
2019-05-29T12:00:45.886Z,21.95
2019-05-29T12:03:16.011Z,21.80
2019-05-29T12:05:46.219Z,21.60
2019-05-29T12:08:16.348Z,21.33
2019-05-29T12:10:46.477Z,21.60
2019-05-29T12:13:16.604Z,21.48
2019-05-29T12:15:46.728Z,21.49
2019-05-29T12:18:23.591Z,21.31
2019-05-29T12:20:48.911Z,21.29
2019-05-29T12:23:26.203Z,21.02
2019-05-29T12:26:10.387Z,20.94
2019-05-29T12:28:23.887Z,20.70
2019-05-29T12:30:55.144Z,20.61
2019-05-29T12:33:26.540Z,20.54
2019-05-29T12:35:56.973Z,20.29
2019-05-29T12:38:27.163Z,20.04
2019-05-29T12:40:57.753Z,20.25
2019-05-29T12:43:28.326Z,20.20
2019-05-29T12:46:00.090Z,19.83
2019-05-29T12:48:30.344Z,19.64
2019-05-29T12:51:02.167Z,19.64
2019-05-29T12:53:33.524Z,19.76
2019-05-29T12:56:04.942Z,20.06
2019-05-29T12:58:35.144Z,19.89
2019-05-29T13:01:05.404Z,19.82
2019-05-29T13:03:36.141Z,19.64
2019-05-29T13:06:07.897Z,19.63
2019-05-29T13:08:38.019Z,19.46
2019-05-29T13:11:08.251Z,19.74
2019-05-29T13:13:38.492Z,19.33
2019-05-29T13:16:09.726Z,19.35
2019-05-29T13:18:39.839Z,19.52
2019-05-29T13:21:10.000Z,19.18
2019-05-29T13:23:45.134Z,18.88
2019-05-29T13:26:11.986Z,18.82
2019-05-29T13:28:42.139Z,18.75
2019-05-29T13:31:12.269Z,18.84
2019-05-29T13:33:42.443Z,18.63
2019-05-29T13:36:12.587Z,18.79
2019-05-29T13:38:42.747Z,18.75
2019-05-29T13:41:13.050Z,18.79
2019-05-29T13:43:43.306Z,18.75
2019-05-29T13:46:13.578Z,18.43
2019-05-29T13:48:43.742Z,18.15
2019-05-29T13:51:15.572Z,18.60
2019-05-29T13:54:02.107Z,18.57
2019-05-29T13:56:17.689Z,18.34
2019-05-29T13:58:47.824Z,18.34
2019-05-29T14:01:18.052Z,18.37
2019-05-29T14:03:50.669Z,18.28
2019-05-29T14:06:20.184Z,18.37
2019-05-29T14:08:50.353Z,18.43
2019-05-29T14:11:20.529Z,18.46
2019-05-29T14:13:50.793Z,18.36
2019-05-29T14:16:21.014Z,18.41
2019-05-29T14:18:51.326Z,18.05
2019-05-29T14:21:21.527Z,18.06
2019-05-29T14:23:51.631Z,18.37
2019-05-29T14:26:21.949Z,18.25
2019-05-29T14:28:52.109Z,17.96
2019-05-29T14:31:22.310Z,17.96
2019-05-29T14:33:52.509Z,17.79
2019-05-29T14:36:22.672Z,17.91
2019-05-29T14:38:52.945Z,17.97
2019-05-29T14:41:23.088Z,18.01
2019-05-29T14:43:53.275Z,17.98
2019-05-29T14:46:24.186Z,18.05
2019-05-29T14:48:54.329Z,17.85
2019-05-29T14:51:24.510Z,17.85
2019-05-29T14:53:54.909Z,17.76
2019-05-29T14:56:25.302Z,17.53
2019-05-29T14:58:55.656Z,17.57
2019-05-29T15:01:25.804Z,17.64
2019-05-29T15:03:55.953Z,17.73
2019-05-29T15:06:26.077Z,17.81
2019-05-29T15:08:57.251Z,17.81
2019-05-29T15:11:27.405Z,17.70
2019-05-29T15:13:57.540Z,17.82
2019-05-29T15:16:27.710Z,17.79
2019-05-29T15:18:58.351Z,17.89
2019-05-29T15:21:28.497Z,17.78
2019-05-29T15:23:58.618Z,17.60
2019-05-29T15:26:28.764Z,17.68
2019-05-29T15:28:59.883Z,17.47
2019-05-29T15:31:30.028Z,17.50
2019-05-29T15:34:00.418Z,17.29
2019-05-29T15:36:30.596Z,17.34
2019-05-29T15:39:00.719Z,17.46
2019-05-29T15:41:32.446Z,17.56
2019-05-29T15:44:02.593Z,17.43
2019-05-29T15:46:32.875Z,17.44
2019-05-29T15:49:03.039Z,17.47
2019-05-29T15:51:33.168Z,17.44
2019-05-29T15:54:03.311Z,17.54
2019-05-29T15:56:33.433Z,17.38
2019-05-29T15:59:03.664Z,17.44
2019-05-29T16:01:33.812Z,17.22
2019-05-29T16:04:03.957Z,17.33
2019-05-29T16:06:34.092Z,17.35
2019-05-29T16:09:05.681Z,17.47
2019-05-29T16:11:35.917Z,17.34
2019-05-29T16:14:26.542Z,17.45
2019-05-29T16:16:56.681Z,17.41
2019-05-29T16:19:26.818Z,17.34
2019-05-29T16:21:56.951Z,17.36
2019-05-29T16:24:27.088Z,17.33
2019-05-29T16:27:08.322Z,17.24
2019-05-29T16:29:30.829Z,17.29
2019-05-29T16:32:01.003Z,17.30
2019-05-29T16:34:31.127Z,17.33
2019-05-29T16:37:01.264Z,17.33
2019-05-29T16:39:31.523Z,17.23
2019-05-29T16:42:01.667Z,17.20
2019-05-29T16:44:31.805Z,17.24
2019-05-29T16:47:02.458Z,17.17
2019-05-29T16:49:32.589Z,17.11
2019-05-29T16:52:02.746Z,17.12
2019-05-29T16:54:32.910Z,17.07
2019-05-29T16:57:03.058Z,17.00
2019-05-29T16:59:33.215Z,16.87
2019-05-29T17:02:03.369Z,16.84
2019-05-29T17:04:33.589Z,16.90
2019-05-29T17:07:03.742Z,16.85
2019-05-29T17:09:34.960Z,16.85
2019-05-29T17:12:05.081Z,16.72
2019-05-29T17:14:35.210Z,16.51
2019-05-29T17:17:05.463Z,16.43
2019-05-29T17:19:35.708Z,16.36
2019-05-29T17:22:05.870Z,16.35
2019-05-29T17:24:36.489Z,16.44
2019-05-29T17:27:06.650Z,16.37
2019-05-29T17:29:36.789Z,16.24
2019-05-29T17:32:06.991Z,16.25
2019-05-29T17:34:37.145Z,16.29
2019-05-29T17:37:07.288Z,16.24
2019-05-29T17:39:37.408Z,16.21
2019-05-29T17:42:07.536Z,16.20
2019-05-29T17:44:37.695Z,16.17
2019-05-29T17:47:07.871Z,16.17
2019-05-29T17:49:38.004Z,16.12
2019-05-29T17:52:08.608Z,16.02
2019-05-29T17:54:38.749Z,16.03
2019-05-29T17:57:09.036Z,16.00
2019-05-29T17:59:39.827Z,15.96
2019-05-29T18:02:10.022Z,15.89
2019-05-29T18:04:40.152Z,15.92
2019-05-29T18:07:10.302Z,15.91
2019-05-29T18:09:42.451Z,15.80
2019-05-29T18:12:19.258Z,15.81
2019-05-29T18:14:49.385Z,15.74
2019-05-29T18:17:24.013Z,15.72
2019-05-29T18:19:54.219Z,15.67
2019-05-29T18:22:25.622Z,15.57
2019-05-29T18:24:55.916Z,15.53
2019-05-29T18:27:26.095Z,15.48
2019-05-29T18:29:56.203Z,15.49
2019-05-29T18:32:26.596Z,15.48
2019-05-29T18:34:56.958Z,15.39
2019-05-29T18:37:28.103Z,15.31
2019-05-29T18:39:58.563Z,15.31
2019-05-29T18:42:29.236Z,15.20
2019-05-29T18:44:59.426Z,15.16
2019-05-29T18:47:29.632Z,15.13
2019-05-29T18:50:00.836Z,15.09
2019-05-29T18:52:32.785Z,15.01
2019-05-29T18:55:02.842Z,14.96
2019-05-29T18:57:33.179Z,14.95
2019-05-29T19:00:05.850Z,14.89
2019-05-29T19:02:36.191Z,14.88
2019-05-29T19:05:06.550Z,14.83
2019-05-29T19:07:36.696Z,14.79
2019-05-29T19:10:08.215Z,14.72
2019-05-29T19:12:38.408Z,14.69
2019-05-29T19:15:09.550Z,14.56
2019-05-29T19:17:39.745Z,14.52
2019-05-29T19:20:11.791Z,14.45
2019-05-29T19:22:42.072Z,14.38
2019-05-29T19:25:12.487Z,14.32
2019-05-29T19:27:42.881Z,14.25
2019-05-29T19:30:14.479Z,14.18
2019-05-29T19:32:47.183Z,14.09
2019-05-29T19:35:18.745Z,14.01
2019-05-29T19:37:48.956Z,13.91
2019-05-29T19:40:19.624Z,13.84
2019-05-29T19:42:49.787Z,13.65
2019-05-29T19:45:20.035Z,13.54
2019-05-29T19:47:50.736Z,13.39
2019-05-29T19:50:21.436Z,13.23
2019-05-29T19:52:51.825Z,13.10
2019-05-29T19:55:22.057Z,12.97
2019-05-29T19:57:56.231Z,12.84
2019-05-29T20:00:24.137Z,12.69
2019-05-29T20:02:54.379Z,12.55
2019-05-29T20:05:24.541Z,12.41
2019-05-29T20:07:54.758Z,12.26
2019-05-29T20:10:24.972Z,12.13
2019-05-29T20:12:55.131Z,11.97
2019-05-29T20:15:25.400Z,11.85
2019-05-29T20:17:55.604Z,11.76
2019-05-29T20:20:25.776Z,11.59
2019-05-29T20:22:56.047Z,11.50
2019-05-29T20:25:26.233Z,11.37
2019-05-29T20:28:06.371Z,11.24
2019-05-29T20:30:32.327Z,11.07
2019-05-29T20:33:03.022Z,10.96
2019-05-29T20:35:33.278Z,10.89
2019-05-29T20:38:06.476Z,10.80
2019-05-29T20:40:35.476Z,10.68
2019-05-29T20:43:07.000Z,10.57
2019-05-29T20:45:37.704Z,10.52
2019-05-29T20:48:08.145Z,10.47
2019-05-29T20:50:39.180Z,10.45
2019-05-29T20:53:09.474Z,10.41
2019-05-29T20:55:39.879Z,10.34
2019-05-29T20:58:24.045Z,10.23
2019-05-29T21:00:42.458Z,10.17
2019-05-29T21:03:12.805Z,10.05
2019-05-29T21:05:43.169Z,9.97
2019-05-29T21:08:13.422Z,9.85
2019-05-29T21:10:43.721Z,9.79
2019-05-29T21:13:13.904Z,9.61
2019-05-29T21:15:44.170Z,9.52
2019-05-29T21:18:14.358Z,9.50
2019-05-29T21:20:44.665Z,9.45
2019-05-29T21:23:14.878Z,9.39
2019-05-29T21:25:45.082Z,9.21
2019-05-29T21:28:15.264Z,9.16
2019-05-29T21:30:45.779Z,8.97
2019-05-29T21:33:17.888Z,9.06
2019-05-29T21:35:48.038Z,9.01
2019-05-29T21:38:18.285Z,9.03
2019-05-29T21:40:48.585Z,9.14
2019-05-29T21:43:18.749Z,9.16
2019-05-29T21:45:49.020Z,9.20
2019-05-29T21:48:19.370Z,9.28
2019-05-29T21:50:54.779Z,9.33
2019-05-29T21:53:26.576Z,9.36
2019-05-29T21:55:58.103Z,9.42
2019-05-29T21:58:28.319Z,9.41
2019-05-29T22:00:58.464Z,9.47
2019-05-29T22:03:29.694Z,9.54
2019-05-29T22:06:00.204Z,9.59
2019-05-29T22:08:30.385Z,9.62
2019-05-29T22:11:01.516Z,9.69
2019-05-29T22:13:31.937Z,9.71
2019-05-29T22:16:02.055Z,9.74
2019-05-29T22:18:32.980Z,9.71
2019-05-29T22:21:03.138Z,9.73
2019-05-29T22:23:33.283Z,9.72
2019-05-29T22:26:03.420Z,9.72
2019-05-29T22:28:33.592Z,9.71
2019-05-29T22:31:03.718Z,9.70
2019-05-29T22:33:33.838Z,9.70
2019-05-29T22:36:03.982Z,9.65
2019-05-29T22:38:34.246Z,9.64
2019-05-29T22:41:04.356Z,9.35
2019-05-29T22:43:34.510Z,9.61
2019-05-29T22:46:04.727Z,9.57
2019-05-29T22:48:34.880Z,9.56
2019-05-29T22:51:05.004Z,9.53
2019-05-29T22:53:36.205Z,9.51
2019-05-29T22:56:06.485Z,9.47
2019-05-29T22:58:36.644Z,9.45
2019-05-29T23:01:06.757Z,9.39
2019-05-29T23:03:36.888Z,9.32
2019-05-29T23:06:07.077Z,9.29
2019-05-29T23:08:37.216Z,9.23
2019-05-29T23:11:07.342Z,9.17
2019-05-29T23:13:37.463Z,9.13
2019-05-29T23:16:07.586Z,9.09
2019-05-29T23:18:37.728Z,9.02
2019-05-29T23:21:07.850Z,8.93
2019-05-29T23:23:38.007Z,8.83
2019-05-29T23:26:08.165Z,8.70
2019-05-29T23:28:38.267Z,8.54
2019-05-29T23:31:08.386Z,8.46
2019-05-29T23:33:39.250Z,8.35
2019-05-29T23:36:09.362Z,8.25
2019-05-29T23:38:39.542Z,8.17
2019-05-29T23:41:09.671Z,8.05
2019-05-29T23:43:39.820Z,7.96
2019-05-29T23:46:09.967Z,7.84
2019-05-29T23:48:40.118Z,7.79
2019-05-29T23:51:10.262Z,7.76
2019-05-29T23:53:40.407Z,7.70
2019-05-29T23:56:10.564Z,7.66
2019-05-29T23:58:40.698Z,7.57
